Time;durP1;ratioP1;P1;durP2;ratioP2;P2;SDS_P1;SDS_P2;PMS_P1;PMS_P2;Temp;Humidity;BMP_temperature;BMP_pressure;BME280_temperature;BME280_humidity;BME280_pressure;Samples;Min_cycle;Max_cycle;Signal;HPM_P1;HPM_P2
2024/01/02 00:01:43;;;;;;;0.40;0.30;;;;;;;;;;5015849;28;20500;-79
2024/01/02 00:04:09;;;;;;;0.80;0.40;;;;;;;;;;5011445;28;20026;-78
2024/01/02 00:06:36;;;;;;;2.05;0.35;;;;;;;;;;5010485;28;20033;-78
2024/01/02 00:09:02;;;;;;;0.80;0.45;;;;;;;;;;4998642;28;20082;-78
2024/01/02 00:11:28;;;;;;;0.40;0.40;;;;;;;;;;5013108;28;20036;-78
2024/01/02 00:13:54;;;;;;;0.80;0.47;;;;;;;;;;5018442;28;20029;-79
2024/01/02 00:16:20;;;;;;;0.88;0.57;;;;;;;;;;5014400;28;20022;-79
2024/01/02 00:18:46;;;;;;;0.82;0.47;;;;;;;;;;5013851;28;20042;-78
2024/01/02 00:21:13;;;;;;;1.17;0.65;;;;;;;;;;5023276;28;20031;-79
2024/01/02 00:23:39;;;;;;;0.40;0.40;;;;;;;;;;5019528;28;20117;-80
2024/01/02 00:26:05;;;;;;;1.27;0.55;;;;;;;;;;5026718;28;20026;-79
2024/01/02 00:28:31;;;;;;;0.55;0.40;;;;;;;;;;4999215;28;20029;-79
2024/01/02 00:30:57;;;;;;;0.93;0.40;;;;;;;;;;5009238;28;20034;-79
2024/01/02 00:33:23;;;;;;;0.73;0.50;;;;;;;;;;5006818;28;20143;-79
2024/01/02 00:35:50;;;;;;;1.17;0.50;;;;;;;;;;5019759;28;20049;-78
2024/01/02 00:38:16;;;;;;;1.33;0.52;;;;;;;;;;5011811;28;20058;-79
2024/01/02 00:40:43;;;;;;;0.45;0.32;;;;;;;;;;5019928;28;20072;-79
2024/01/02 00:43:09;;;;;;;0.55;0.35;;;;;;;;;;5014162;28;20014;-79
2024/01/02 00:45:35;;;;;;;0.38;0.30;;;;;;;;;;5017668;28;20396;-78
2024/01/02 00:48:01;;;;;;;1.10;0.40;;;;;;;;;;5020269;28;20025;-78
2024/01/02 00:50:27;;;;;;;1.00;0.32;;;;;;;;;;5024888;28;20078;-78
2024/01/02 00:52:54;;;;;;;0.90;0.40;;;;;;;;;;5015313;28;20034;-78
2024/01/02 00:55:20;;;;;;;0.45;0.43;;;;;;;;;;5006280;28;20053;-79
2024/01/02 00:57:46;;;;;;;0.75;0.30;;;;;;;;;;5017874;28;20042;-78
2024/01/02 01:00:12;;;;;;;0.80;0.30;;;;;;;;;;5012196;28;20115;-79
2024/01/02 01:02:38;;;;;;;0.40;0.35;;;;;;;;;;5019765;28;20041;-79
2024/01/02 01:05:05;;;;;;;0.32;0.32;;;;;;;;;;5020887;28;20476;-79
2024/01/02 01:07:31;;;;;;;0.45;0.40;;;;;;;;;;5015583;28;20078;-79
2024/01/02 01:09:57;;;;;;;0.80;0.38;;;;;;;;;;5017663;28;20030;-77
2024/01/02 01:12:23;;;;;;;0.40;0.40;;;;;;;;;;5021856;28;20033;-78
2024/01/02 01:14:49;;;;;;;1.00;0.50;;;;;;;;;;5019158;28;20034;-79
2024/01/02 01:17:15;;;;;;;1.73;0.68;;;;;;;;;;5008525;28;20026;-79
2024/01/02 01:19:42;;;;;;;0.32;0.32;;;;;;;;;;5006781;28;20050;-80
2024/01/02 01:22:08;;;;;;;0.65;0.50;;;;;;;;;;5014404;28;20099;-79
2024/01/02 01:24:34;;;;;;;1.35;0.80;;;;;;;;;;5004964;28;20032;-80
2024/01/02 01:27:00;;;;;;;1.00;0.80;;;;;;;;;;5033885;28;20036;-78
2024/01/02 01:29:26;;;;;;;1.92;1.02;;;;;;;;;;5036347;28;20121;-78
2024/01/02 01:31:52;;;;;;;1.08;0.65;;;;;;;;;;5020574;28;20441;-79
2024/01/02 01:34:18;;;;;;;1.60;0.70;;;;;;;;;;5035361;28;20026;-79
2024/01/02 01:36:44;;;;;;;1.05;0.40;;;;;;;;;;5017524;28;20053;-79
2024/01/02 01:39:11;;;;;;;1.30;0.55;;;;;;;;;;5020340;28;20061;-80
2024/01/02 01:41:37;;;;;;;0.30;0.30;;;;;;;;;;5013238;28;20049;-77
2024/01/02 01:44:03;;;;;;;0.57;0.40;;;;;;;;;;5015591;28;20027;-78
2024/01/02 01:46:40;;;;;;;0.75;0.40;;;;;;;;;;5010643;28;20025;-79
2024/01/02 01:49:07;;;;;;;0.45;0.22;;;;;;;;;;5008280;28;20065;-78
2024/01/02 01:51:35;;;;;;;0.95;0.60;;;;;;;;;;5008016;28;20081;-78
2024/01/02 01:54:01;;;;;;;0.60;0.40;;;;;;;;;;5017959;28;20037;-77
2024/01/02 01:56:28;;;;;;;1.13;0.35;;;;;;;;;;5019417;28;20022;-78
2024/01/02 01:58:54;;;;;;;0.90;0.65;;;;;;;;;;5018108;28;20103;-79
2024/01/02 02:01:20;;;;;;;0.40;0.40;;;;;;;;;;5002700;28;20074;-78
2024/01/02 02:03:47;;;;;;;2.60;0.93;;;;;;;;;;5007810;28;20030;-78
2024/01/02 02:06:13;;;;;;;0.55;0.43;;;;;;;;;;5009413;28;20083;-79
2024/01/02 02:08:40;;;;;;;1.38;0.45;;;;;;;;;;5036996;28;20198;-80
2024/01/02 02:11:06;;;;;;;1.08;0.77;;;;;;;;;;5035807;28;20133;-79
2024/01/02 02:13:32;;;;;;;0.80;0.60;;;;;;;;;;5017867;28;20017;-80
2024/01/02 02:15:58;;;;;;;0.90;0.43;;;;;;;;;;5015210;28;20089;-79
2024/01/02 02:18:24;;;;;;;1.17;0.65;;;;;;;;;;5016474;28;20033;-79
2024/01/02 02:20:50;;;;;;;0.65;0.45;;;;;;;;;;5009708;28;20442;-78
2024/01/02 02:23:17;;;;;;;1.55;0.60;;;;;;;;;;5020900;28;20018;-78
2024/01/02 02:25:43;;;;;;;1.08;0.43;;;;;;;;;;5020680;28;20066;-80
2024/01/02 02:28:09;;;;;;;0.85;0.50;;;;;;;;;;5015308;28;20022;-78
2024/01/02 02:30:36;;;;;;;1.52;0.57;;;;;;;;;;4999144;28;20136;-79
2024/01/02 02:33:02;;;;;;;0.45;0.40;;;;;;;;;;5011754;28;20022;-79
2024/01/02 02:35:28;;;;;;;1.27;0.35;;;;;;;;;;5012652;28;20068;-79
2024/01/02 02:37:57;;;;;;;0.93;0.32;;;;;;;;;;5008825;28;20037;-79
2024/01/02 02:40:23;;;;;;;0.82;0.45;;;;;;;;;;5014316;28;20034;-78
2024/01/02 02:42:50;;;;;;;0.68;0.40;;;;;;;;;;5007596;28;20082;-77
2024/01/02 02:45:16;;;;;;;1.42;0.60;;;;;;;;;;4997734;28;20033;-78
2024/01/02 02:47:42;;;;;;;0.75;0.40;;;;;;;;;;5007209;28;20084;-77
2024/01/02 02:50:09;;;;;;;0.70;0.60;;;;;;;;;;5019236;28;20132;-78
2024/01/02 02:52:35;;;;;;;0.90;0.45;;;;;;;;;;5013163;28;20056;-79
2024/01/02 02:55:04;;;;;;;0.73;0.47;;;;;;;;;;5020826;28;20092;-79
2024/01/02 02:57:31;;;;;;;1.10;0.50;;;;;;;;;;5020786;28;20070;-78
2024/01/02 02:59:57;;;;;;;0.47;0.30;;;;;;;;;;5017803;28;20033;-79
2024/01/02 03:02:23;;;;;;;0.38;0.38;;;;;;;;;;5004961;28;20030;-78
2024/01/02 03:04:49;;;;;;;1.08;0.40;;;;;;;;;;5014192;28;20033;-79
2024/01/02 03:07:15;;;;;;;0.30;0.30;;;;;;;;;;5017204;28;20022;-79
2024/01/02 03:09:44;;;;;;;1.08;0.45;;;;;;;;;;5015974;28;20112;-81
2024/01/02 03:12:10;;;;;;;0.40;0.40;;;;;;;;;;5015420;28;20044;-78
2024/01/02 03:14:37;;;;;;;0.35;0.30;;;;;;;;;;5017267;28;20026;-79
2024/01/02 03:17:04;;;;;;;0.20;0.20;;;;;;;;;;5003638;28;20026;-78
2024/01/02 03:19:30;;;;;;;0.30;0.28;;;;;;;;;;5007297;28;20018;-79
2024/01/02 03:21:56;;;;;;;0.73;0.40;;;;;;;;;;5022240;28;20372;-79
2024/01/02 03:24:22;;;;;;;0.20;0.20;;;;;;;;;;5015902;28;20022;-80
2024/01/02 03:26:49;;;;;;;0.52;0.38;;;;;;;;;;5009299;28;20096;-80
2024/01/02 03:29:16;;;;;;;0.55;0.30;;;;;;;;;;5021455;28;20022;-79
2024/01/02 03:31:43;;;;;;;0.30;0.20;;;;;;;;;;5008181;28;20493;-78
2024/01/02 03:34:09;;;;;;;0.20;0.20;;;;;;;;;;5014253;28;20022;-78
2024/01/02 03:36:35;;;;;;;0.52;0.35;;;;;;;;;;5021438;28;20022;-80
2024/01/02 03:39:02;;;;;;;0.20;0.20;;;;;;;;;;5021460;28;20014;-79
2024/01/02 03:41:29;;;;;;;0.38;0.35;;;;;;;;;;5021378;28;20078;-79
2024/01/02 03:43:55;;;;;;;0.38;0.20;;;;;;;;;;5010609;28;20067;-78
2024/01/02 03:46:21;;;;;;;0.20;0.17;;;;;;;;;;5006724;28;20027;-79
2024/01/02 03:48:47;;;;;;;0.30;0.30;;;;;;;;;;5010455;28;20109;-79
2024/01/02 03:51:13;;;;;;;0.30;0.30;;;;;;;;;;5012675;28;20026;-80
2024/01/02 03:53:40;;;;;;;0.70;0.40;;;;;;;;;;4999863;28;20377;-79
2024/01/02 03:56:06;;;;;;;0.20;0.20;;;;;;;;;;5003440;28;20053;-79
2024/01/02 03:58:32;;;;;;;0.35;0.20;;;;;;;;;;5017600;28;20038;-78
2024/01/02 04:00:59;;;;;;;0.22;0.15;;;;;;;;;;5033410;28;20045;-79
2024/01/02 04:03:25;;;;;;;0.50;0.20;;;;;;;;;;5024237;28;20018;-79
2024/01/02 04:05:53;;;;;;;0.13;0.13;;;;;;;;;;5013363;28;20038;-79
2024/01/02 04:08:19;;;;;;;0.15;0.10;;;;;;;;;;5018694;28;20105;-78
2024/01/02 04:10:45;;;;;;;0.30;0.15;;;;;;;;;;5027179;28;20114;-78
2024/01/02 04:13:12;;;;;;;0.30;0.28;;;;;;;;;;5016826;28;20523;-79
2024/01/02 04:15:38;;;;;;;0.22;0.22;;;;;;;;;;5022475;28;20029;-78
2024/01/02 04:18:04;;;;;;;0.30;0.10;;;;;;;;;;5027745;28;20073;-79
2024/01/02 04:20:31;;;;;;;0.17;0.17;;;;;;;;;;5029119;28;20038;-79
2024/01/02 04:22:58;;;;;;;0.50;0.20;;;;;;;;;;5030760;28;20026;-81
2024/01/02 04:25:24;;;;;;;0.10;0.10;;;;;;;;;;5023617;28;20030;-79
2024/01/02 04:27:52;;;;;;;0.20;0.20;;;;;;;;;;5029815;28;20036;-79
2024/01/02 04:30:18;;;;;;;0.10;0.10;;;;;;;;;;5025900;28;20388;-79
2024/01/02 04:32:45;;;;;;;0.45;0.20;;;;;;;;;;5026789;28;20033;-79
2024/01/02 04:35:11;;;;;;;0.03;0.03;;;;;;;;;;5036249;28;20022;-79
2024/01/02 04:37:37;;;;;;;0.30;0.20;;;;;;;;;;5021848;28;20029;-78
2024/01/02 04:40:05;;;;;;;0.20;0.17;;;;;;;;;;5037797;28;20036;-78
2024/01/02 04:42:35;;;;;;;0.30;0.30;;;;;;;;;;5044461;28;20034;-79
2024/01/02 04:45:04;;;;;;;0.38;0.30;;;;;;;;;;5037020;28;20026;-79
2024/01/02 04:47:33;;;;;;;0.50;0.30;;;;;;;;;;5024510;28;20026;-79
2024/01/02 04:50:01;;;;;;;0.30;0.30;;;;;;;;;;5028100;28;20026;-79
2024/01/02 04:52:27;;;;;;;0.63;0.30;;;;;;;;;;5029316;28;20082;-79
2024/01/02 04:54:53;;;;;;;0.20;0.20;;;;;;;;;;5032960;28;20030;-79
2024/01/02 04:57:20;;;;;;;0.70;0.50;;;;;;;;;;5021867;28;20089;-80
2024/01/02 04:59:48;;;;;;;0.55;0.22;;;;;;;;;;5027792;28;20216;-79
2024/01/02 05:02:14;;;;;;;0.55;0.25;;;;;;;;;;5029011;28;20049;-80
2024/01/02 05:04:41;;;;;;;0.32;0.30;;;;;;;;;;5029096;28;20402;-79
2024/01/02 05:07:07;;;;;;;0.40;0.40;;;;;;;;;;5022229;28;20034;-79
2024/01/02 05:09:33;;;;;;;0.47;0.40;;;;;;;;;;5027502;28;20026;-78
2024/01/02 05:11:59;;;;;;;0.40;0.40;;;;;;;;;;5025047;28;20022;-79
2024/01/02 05:14:25;;;;;;;0.63;0.28;;;;;;;;;;5037589;28;20047;-79
2024/01/02 05:16:51;;;;;;;0.95;0.52;;;;;;;;;;5039780;28;20027;-78
2024/01/02 05:19:18;;;;;;;0.40;0.30;;;;;;;;;;5041517;28;20072;-76
2024/01/02 05:21:44;;;;;;;0.47;0.30;;;;;;;;;;5028241;28;20526;-79
2024/01/02 05:24:10;;;;;;;0.63;0.30;;;;;;;;;;5031307;28;20140;-81
2024/01/02 05:26:36;;;;;;;0.13;0.13;;;;;;;;;;5024604;28;20036;-81
2024/01/02 05:29:03;;;;;;;0.10;0.10;;;;;;;;;;5037736;28;20155;-78
2024/01/02 05:31:29;;;;;;;0.20;0.20;;;;;;;;;;5004031;28;20034;-77
2024/01/02 05:33:55;;;;;;;0.25;0.20;;;;;;;;;;5029036;28;20052;-81
2024/01/02 05:36:21;;;;;;;0.52;0.25;;;;;;;;;;5031119;28;20014;-77
2024/01/02 05:38:47;;;;;;;0.63;0.30;;;;;;;;;;5022304;28;20697;-79
2024/01/02 05:41:14;;;;;;;0.55;0.35;;;;;;;;;;5014040;28;20026;-77
2024/01/02 05:43:40;;;;;;;0.30;0.30;;;;;;;;;;5019541;28;20164;-78
2024/01/02 05:46:06;;;;;;;0.52;0.38;;;;;;;;;;5010539;28;20035;-77
2024/01/02 05:48:32;;;;;;;0.43;0.20;;;;;;;;;;5016197;28;20026;-78
2024/01/02 05:50:58;;;;;;;0.17;0.17;;;;;;;;;;5026037;28;20032;-78
2024/01/02 05:53:24;;;;;;;0.30;0.30;;;;;;;;;;5018073;28;20065;-78
2024/01/02 05:55:50;;;;;;;0.10;0.10;;;;;;;;;;5039737;28;20026;-78
2024/01/02 05:58:16;;;;;;;0.20;0.20;;;;;;;;;;5049424;28;20109;-78
2024/01/02 06:00:43;;;;;;;0.50;0.20;;;;;;;;;;5024145;28;20046;-78
2024/01/02 06:03:09;;;;;;;0.10;0.08;;;;;;;;;;5021238;28;20396;-79
2024/01/02 06:05:35;;;;;;;0.10;0.00;;;;;;;;;;5023674;28;20030;-77
2024/01/02 06:08:01;;;;;;;0.38;0.20;;;;;;;;;;5023996;28;20029;-79
2024/01/02 06:10:27;;;;;;;0.10;0.10;;;;;;;;;;5010752;28;20026;-78
2024/01/02 06:12:53;;;;;;;0.38;0.30;;;;;;;;;;5019360;28;20056;-78
2024/01/02 06:15:20;;;;;;;0.10;0.10;;;;;;;;;;5023481;28;20060;-79
2024/01/02 06:17:46;;;;;;;0.30;0.30;;;;;;;;;;5022180;28;20056;-79
2024/01/02 06:20:13;;;;;;;0.22;0.10;;;;;;;;;;5022448;28;20197;-78
2024/01/02 06:22:39;;;;;;;0.52;0.15;;;;;;;;;;5013996;28;20026;-79
2024/01/02 06:25:08;;;;;;;0.20;0.20;;;;;;;;;;5023735;28;20081;-78
2024/01/02 06:27:35;;;;;;;0.20;0.10;;;;;;;;;;5026026;28;20013;-79
2024/01/02 06:30:03;;;;;;;0.45;0.10;;;;;;;;;;5017522;28;20026;-80
2024/01/02 06:32:30;;;;;;;0.93;0.20;;;;;;;;;;5023363;28;20056;-79
2024/01/02 06:34:57;;;;;;;0.43;0.10;;;;;;;;;;5023167;28;20057;-79
2024/01/02 06:37:25;;;;;;;0.77;0.20;;;;;;;;;;5016939;28;20054;-79
2024/01/02 06:39:51;;;;;;;0.35;0.35;;;;;;;;;;5001300;28;20347;-80
2024/01/02 06:42:17;;;;;;;0.10;0.10;;;;;;;;;;5019471;28;20087;-78
2024/01/02 06:44:44;;;;;;;0.20;0.20;;;;;;;;;;5006018;28;20026;-78
2024/01/02 06:47:10;;;;;;;0.80;0.20;;;;;;;;;;5021278;28;20022;-78
2024/01/02 06:49:36;;;;;;;0.40;0.10;;;;;;;;;;5009379;28;20045;-78
2024/01/02 06:52:02;;;;;;;0.05;0.00;;;;;;;;;;5014853;28;20021;-77
2024/01/02 06:54:28;;;;;;;0.00;0.00;;;;;;;;;;5021865;28;20042;-78
2024/01/02 06:56:56;;;;;;;0.47;0.20;;;;;;;;;;5037136;28;20074;-78
2024/01/02 06:59:22;;;;;;;0.25;0.20;;;;;;;;;;5016474;28;20026;-79
2024/01/02 07:01:48;;;;;;;0.17;0.10;;;;;;;;;;5008893;28;20406;-80
2024/01/02 07:04:15;;;;;;;0.00;0.00;;;;;;;;;;5020658;28;20014;-79
2024/01/02 07:06:41;;;;;;;0.00;0.00;;;;;;;;;;5019505;28;20034;-79
2024/01/02 07:09:07;;;;;;;0.10;0.10;;;;;;;;;;5011444;28;20029;-78
2024/01/02 07:11:33;;;;;;;0.28;0.10;;;;;;;;;;5019094;28;20081;-79
2024/01/02 07:13:59;;;;;;;0.00;0.00;;;;;;;;;;5017819;28;20026;-79
2024/01/02 07:16:26;;;;;;;0.10;0.10;;;;;;;;;;5012193;28;20041;-78
2024/01/02 07:18:52;;;;;;;0.40;0.05;;;;;;;;;;5019168;28;20109;-78
2024/01/02 07:21:18;;;;;;;0.10;0.10;;;;;;;;;;5017787;28;20460;-79
2024/01/02 07:23:44;;;;;;;0.10;0.10;;;;;;;;;;5019427;28;20026;-79
2024/01/02 07:26:10;;;;;;;0.28;0.22;;;;;;;;;;5020300;28;20056;-80
2024/01/02 07:28:36;;;;;;;0.20;0.20;;;;;;;;;;5013058;28;20038;-78
2024/01/02 07:31:03;;;;;;;0.73;0.15;;;;;;;;;;5006474;28;20449;-78
2024/01/02 07:33:29;;;;;;;0.30;0.20;;;;;;;;;;5013054;28;20019;-78
2024/01/02 07:35:56;;;;;;;0.52;0.30;;;;;;;;;;5021017;28;20041;-78
2024/01/02 07:38:26;;;;;;;0.25;0.20;;;;;;;;;;5036417;28;20022;-77
2024/01/02 07:40:52;;;;;;;0.30;0.30;;;;;;;;;;5022637;28;20091;-79
2024/01/02 07:43:18;;;;;;;0.30;0.20;;;;;;;;;;5021693;28;20101;-79
2024/01/02 07:45:45;;;;;;;0.65;0.10;;;;;;;;;;5019459;28;20120;-77
2024/01/02 07:48:11;;;;;;;0.70;0.22;;;;;;;;;;5022900;28;20145;-78
2024/01/02 07:50:37;;;;;;;0.38;0.15;;;;;;;;;;5017746;28;20050;-78
2024/01/02 07:53:03;;;;;;;0.60;0.38;;;;;;;;;;5030233;28;20033;-79
2024/01/02 07:55:29;;;;;;;0.20;0.20;;;;;;;;;;5032085;28;20030;-78
2024/01/02 07:57:56;;;;;;;0.22;0.20;;;;;;;;;;5031247;28;20108;-80
2024/01/02 08:00:23;;;;;;;0.80;0.40;;;;;;;;;;5026789;28;20022;-79
2024/01/02 08:02:49;;;;;;;0.60;0.55;;;;;;;;;;5028684;28;20052;-80
2024/01/02 08:05:15;;;;;;;1.10;0.47;;;;;;;;;;5032078;28;20045;-79
2024/01/02 08:07:41;;;;;;;0.47;0.47;;;;;;;;;;5027411;28;20026;-79
2024/01/02 08:10:08;;;;;;;0.40;0.40;;;;;;;;;;5025293;28;20022;-80
2024/01/02 08:12:34;;;;;;;0.40;0.40;;;;;;;;;;5024820;28;20022;-79
2024/01/02 08:15:01;;;;;;;0.55;0.55;;;;;;;;;;5025250;28;20030;-79
2024/01/02 08:17:27;;;;;;;1.23;0.40;;;;;;;;;;5027721;28;20545;-79
2024/01/02 08:19:54;;;;;;;0.45;0.40;;;;;;;;;;5026868;28;20098;-79
2024/01/02 08:22:20;;;;;;;2.38;0.30;;;;;;;;;;5026766;28;20089;-78
2024/01/02 08:24:46;;;;;;;0.73;0.45;;;;;;;;;;5028773;28;20090;-78
2024/01/02 08:27:13;;;;;;;0.28;0.28;;;;;;;;;;5028518;28;20026;-78
2024/01/02 08:29:39;;;;;;;0.30;0.30;;;;;;;;;;5027326;28;20022;-78
2024/01/02 08:32:06;;;;;;;0.70;0.40;;;;;;;;;;5028656;28;20037;-80
2024/01/02 08:34:32;;;;;;;0.10;0.10;;;;;;;;;;5026847;28;20116;-78
2024/01/02 08:36:58;;;;;;;0.32;0.25;;;;;;;;;;5028420;28;20026;-79
2024/01/02 08:39:26;;;;;;;0.35;0.30;;;;;;;;;;5027038;28;20053;-79
2024/01/02 08:41:52;;;;;;;0.52;0.30;;;;;;;;;;5027708;28;20508;-80
2024/01/02 08:44:18;;;;;;;0.28;0.20;;;;;;;;;;5027186;28;20018;-79
2024/01/02 08:46:45;;;;;;;0.45;0.30;;;;;;;;;;5028246;28;20045;-79
2024/01/02 08:49:12;;;;;;;0.55;0.40;;;;;;;;;;5028105;28;20041;-80
2024/01/02 08:51:39;;;;;;;0.40;0.30;;;;;;;;;;5029619;28;20040;-78
2024/01/02 08:54:05;;;;;;;0.40;0.28;;;;;;;;;;5028454;28;20133;-79
2024/01/02 08:56:31;;;;;;;0.60;0.30;;;;;;;;;;5027014;28;20273;-79
2024/01/02 08:58:57;;;;;;;0.80;0.60;;;;;;;;;;5027638;28;20040;-78
2024/01/02 09:01:24;;;;;;;0.40;0.30;;;;;;;;;;5027263;28;20106;-78
2024/01/02 09:03:50;;;;;;;0.57;0.40;;;;;;;;;;5024424;28;20404;-79
2024/01/02 09:06:20;;;;;;;0.40;0.28;;;;;;;;;;5024253;28;20504;-79
2024/01/02 09:08:46;;;;;;;0.68;0.40;;;;;;;;;;5026028;28;20033;-79
2024/01/02 09:11:13;;;;;;;0.93;0.65;;;;;;;;;;5025300;28;20029;-78
2024/01/02 09:13:39;;;;;;;0.47;0.47;;;;;;;;;;5026341;28;20077;-79
2024/01/02 09:16:08;;;;;;;0.75;0.60;;;;;;;;;;5025040;28;20045;-78
2024/01/02 09:18:34;;;;;;;0.85;0.50;;;;;;;;;;5025796;28;20159;-79
2024/01/02 09:21:00;;;;;;;0.52;0.40;;;;;;;;;;5021947;28;20030;-79
2024/01/02 09:23:26;;;;;;;0.47;0.47;;;;;;;;;;5015750;28;20078;-78
2024/01/02 09:26:01;;;;;;;0.65;0.50;;;;;;;;;;5007298;28;20034;-77
2024/01/02 09:28:28;;;;;;;0.50;0.40;;;;;;;;;;5001786;28;20029;-78
2024/01/02 09:30:54;;;;;;;0.65;0.40;;;;;;;;;;5019855;28;20026;-77
2024/01/02 09:33:21;;;;;;;0.63;0.30;;;;;;;;;;5019398;28;20084;-78
2024/01/02 09:35:47;;;;;;;1.05;0.40;;;;;;;;;;5010793;28;20545;-79
2024/01/02 09:38:15;;;;;;;0.52;0.50;;;;;;;;;;5001426;28;20470;-79
2024/01/02 09:41:00;;;;;;;1.02;0.47;;;;;;;;;;5010064;28;20022;-79
2024/01/02 09:43:33;;;;;;;0.80;0.50;;;;;;;;;;5010564;28;20034;-81
2024/01/02 09:46:15;;;;;;;0.60;0.60;;;;;;;;;;5016317;28;20026;-78
2024/01/02 09:48:47;;;;;;;0.63;0.47;;;;;;;;;;5011538;28;20083;-78
2024/01/02 09:51:13;;;;;;;;;;;;;;;;;;5013947;28;20038;-79
2024/01/02 09:53:48;;;;;;;0.75;0.50;;;;;;;;;;5013305;28;19975;-80
2024/01/02 09:56:33;;;;;;;0.45;0.40;;;;;;;;;;5003666;28;20034;-79
2024/01/02 09:59:18;;;;;;;0.65;0.60;;;;;;;;;;5006376;28;20040;-79
2024/01/02 10:01:54;;;;;;;0.93;0.55;;;;;;;;;;5024382;28;20046;-78
2024/01/02 10:04:20;;;;;;;0.52;0.52;;;;;;;;;;5019908;28;20026;-79
2024/01/02 10:07:07;;;;;;;0.35;0.35;;;;;;;;;;5013512;28;20092;-79
2024/01/02 10:09:39;;;;;;;0.80;0.50;;;;;;;;;;4992397;28;20038;-78
2024/01/02 10:12:14;;;;;;;0.90;0.60;;;;;;;;;;5012954;28;20145;-78
2024/01/02 10:15:07;;;;;;;0.40;0.40;;;;;;;;;;5007425;28;20026;-79
2024/01/02 10:17:33;;;;;;;1.10;0.40;;;;;;;;;;5007028;28;20058;-78
2024/01/02 10:20:10;;;;;;;0.47;0.40;;;;;;;;;;5002445;28;20030;-78
2024/01/02 10:22:46;;;;;;;1.85;0.30;;;;;;;;;;5027731;28;20076;-77
2024/01/02 10:25:15;;;;;;;0.50;0.25;;;;;;;;;;5009067;28;20125;-78
2024/01/02 10:27:58;;;;;;;0.88;0.50;;;;;;;;;;5001822;28;20078;-78
2024/01/02 10:30:27;;;;;;;2.63;0.60;;;;;;;;;;5006492;28;20026;-79
2024/01/02 10:32:54;;;;;;;1.42;1.33;;;;;;;;;;4998041;28;20106;-79
2024/01/02 10:35:23;;;;;;;0.95;0.95;;;;;;;;;;5003086;28;20024;-79
2024/01/02 10:38:08;;;;;;;1.63;0.60;;;;;;;;;;5012379;28;20398;-77
2024/01/02 10:40:35;;;;;;;1.20;0.50;;;;;;;;;;5020533;28;20030;-78
2024/01/02 10:43:04;;;;;;;0.20;0.20;;;;;;;;;;5016495;28;20037;-78
2024/01/02 10:45:34;;;;;;;0.25;0.25;;;;;;;;;;5006884;28;20029;-79
2024/01/02 10:48:11;;;;;;;0.30;0.17;;;;;;;;;;5014842;28;20026;-78
2024/01/02 10:50:47;;;;;;;0.45;0.30;;;;;;;;;;5019500;28;20018;-77
2024/01/02 10:53:21;;;;;;;0.30;0.30;;;;;;;;;;5016702;28;20030;-78
2024/01/02 10:55:49;;;;;;;0.40;0.30;;;;;;;;;;5007964;28;20633;-79
2024/01/02 10:58:20;;;;;;;0.52;0.20;;;;;;;;;;5011174;28;20027;-80
2024/01/02 11:00:50;;;;;;;0.50;0.28;;;;;;;;;;5012972;28;20028;-79
2024/01/02 11:03:17;;;;;;;0.35;0.20;;;;;;;;;;5029540;28;20235;-77
2024/01/02 11:05:45;;;;;;;0.00;0.00;;;;;;;;;;5005562;28;20137;-79
2024/01/02 11:08:26;;;;;;;0.35;0.35;;;;;;;;;;5000950;28;20027;-79
2024/01/02 11:10:56;;;;;;;1.67;0.17;;;;;;;;;;5020718;28;20030;-78
2024/01/02 11:13:23;;;;;;;0.57;0.57;;;;;;;;;;5028202;28;20025;-78
2024/01/02 11:15:53;;;;;;;0.32;0.22;;;;;;;;;;5031646;28;20034;-78
2024/01/02 11:18:19;;;;;;;0.47;0.22;;;;;;;;;;5023549;28;20049;-78
2024/01/02 11:20:51;;;;;;;0.75;0.20;;;;;;;;;;5012243;28;20286;-78
2024/01/02 11:23:21;;;;;;;0.28;0.28;;;;;;;;;;5021483;28;20013;-80
2024/01/02 11:25:54;;;;;;;0.52;0.20;;;;;;;;;;5020074;28;20080;-78
2024/01/02 11:28:22;;;;;;;0.22;0.20;;;;;;;;;;5001941;28;20021;-79
2024/01/02 11:30:48;;;;;;;0.32;0.25;;;;;;;;;;5022918;28;20108;-79
2024/01/02 11:33:14;;;;;;;0.35;0.35;;;;;;;;;;5002491;28;20022;-79
2024/01/02 11:35:45;;;;;;;4.40;0.30;;;;;;;;;;5004797;28;20069;-81
2024/01/02 11:38:12;;;;;;;0.50;0.30;;;;;;;;;;5020830;28;20038;-79
2024/01/02 11:40:49;;;;;;;0.47;0.32;;;;;;;;;;5004460;28;20129;-78
2024/01/02 11:43:23;;;;;;;0.30;0.30;;;;;;;;;;5008014;28;20042;-77
2024/01/02 11:45:56;;;;;;;0.40;0.20;;;;;;;;;;5005625;28;20022;-78
2024/01/02 11:48:22;;;;;;;0.57;0.40;;;;;;;;;;5001619;28;20019;-79
2024/01/02 11:50:49;;;;;;;0.40;0.20;;;;;;;;;;5016339;28;20030;-79
2024/01/02 11:53:17;;;;;;;0.57;0.20;;;;;;;;;;5007696;28;20140;-78
2024/01/02 11:55:57;;;;;;;0.10;0.10;;;;;;;;;;4997196;28;20026;-79
2024/01/02 11:58:34;;;;;;;0.30;0.30;;;;;;;;;;5002750;28;20026;-78
2024/01/02 12:01:03;;;;;;;0.50;0.50;;;;;;;;;;5010524;28;20030;-78
2024/01/02 12:03:48;;;;;;;0.40;0.40;;;;;;;;;;5011316;28;20074;-78
2024/01/02 12:06:23;;;;;;;0.22;0.22;;;;;;;;;;5009016;28;20027;-78
2024/01/02 12:08:54;;;;;;;0.75;0.32;;;;;;;;;;5006365;28;20056;-78
2024/01/02 12:11:20;;;;;;;0.30;0.30;;;;;;;;;;5009340;28;20050;-78
2024/01/02 12:14:07;;;;;;;0.40;0.40;;;;;;;;;;4999182;28;20485;-79
2024/01/02 12:16:34;;;;;;;1.08;0.22;;;;;;;;;;5000181;28;20038;-79
2024/01/02 12:19:05;;;;;;;0.47;0.20;;;;;;;;;;5005752;28;20449;-79
2024/01/02 12:21:33;;;;;;;0.30;0.30;;;;;;;;;;5027975;28;20097;-80
2024/01/02 12:24:01;;;;;;;0.20;0.20;;;;;;;;;;5020242;28;20018;-80
2024/01/02 12:26:29;;;;;;;0.40;0.38;;;;;;;;;;5028606;28;20022;-78
2024/01/02 12:28:56;;;;;;;0.73;0.30;;;;;;;;;;5022630;28;20026;-77
2024/01/02 12:31:34;;;;;;;1.98;0.20;;;;;;;;;;5018801;28;20076;-78
2024/01/02 12:34:13;;;;;;;0.65;0.30;;;;;;;;;;5020825;28;20315;-78
2024/01/02 12:36:52;;;;;;;1.65;0.30;;;;;;;;;;5026692;28;20400;-77
2024/01/02 12:39:20;;;;;;;0.52;0.38;;;;;;;;;;5030959;28;20064;-78
2024/01/02 12:41:51;;;;;;;0.25;0.22;;;;;;;;;;5025511;28;20034;-78
2024/01/02 12:44:18;;;;;;;0.40;0.20;;;;;;;;;;5023062;28;20049;-78
2024/01/02 12:46:44;;;;;;;0.28;0.20;;;;;;;;;;5035187;28;20033;-77
2024/01/02 12:49:11;;;;;;;0.30;0.30;;;;;;;;;;5007314;28;20089;-78
2024/01/02 12:51:38;;;;;;;0.32;0.28;;;;;;;;;;5027445;28;20026;-79
2024/01/02 12:54:05;;;;;;;0.45;0.35;;;;;;;;;;5030390;28;20036;-80
2024/01/02 12:56:32;;;;;;;1.77;0.17;;;;;;;;;;5028148;28;20022;-79
2024/01/02 12:59:05;;;;;;;0.40;0.20;;;;;;;;;;5010074;28;20031;-79
2024/01/02 13:01:32;;;;;;;0.20;0.20;;;;;;;;;;5023005;28;20571;-79
2024/01/02 13:03:58;;;;;;;0.15;0.15;;;;;;;;;;5014325;28;20022;-81
2024/01/02 13:06:25;;;;;;;0.22;0.22;;;;;;;;;;5008998;28;20026;-80
2024/01/02 13:08:51;;;;;;;0.10;0.10;;;;;;;;;;5010933;28;20113;-79
2024/01/02 13:11:20;;;;;;;0.73;0.35;;;;;;;;;;5016836;28;20034;-80
2024/01/02 13:13:47;;;;;;;0.57;0.20;;;;;;;;;;5002528;28;20397;-79
2024/01/02 13:16:13;;;;;;;0.20;0.20;;;;;;;;;;5012602;28;20030;-79
2024/01/02 13:18:40;;;;;;;0.77;0.30;;;;;;;;;;5010272;28;20029;-78
2024/01/02 13:21:06;;;;;;;0.22;0.10;;;;;;;;;;5009119;28;20551;-79
2024/01/02 13:23:32;;;;;;;0.30;0.30;;;;;;;;;;5020443;28;20022;-78
2024/01/02 13:25:58;;;;;;;0.40;0.20;;;;;;;;;;5018902;28;20073;-79
2024/01/02 13:28:27;;;;;;;0.50;0.15;;;;;;;;;;4997580;28;20433;-79
2024/01/02 13:30:57;;;;;;;0.28;0.20;;;;;;;;;;5000416;28;20027;-79
2024/01/02 13:33:23;;;;;;;0.85;0.20;;;;;;;;;;5010069;28;20032;-79
2024/01/02 13:36:01;;;;;;;0.75;0.65;;;;;;;;;;5014254;28;20052;-79
2024/01/02 13:38:29;;;;;;;2.13;1.17;;;;;;;;;;5017148;28;20026;-79
2024/01/02 13:41:03;;;;;;;0.50;0.50;;;;;;;;;;5011555;28;20038;-80
2024/01/02 13:43:30;;;;;;;0.30;0.30;;;;;;;;;;5016698;28;20023;-79
2024/01/02 13:46:09;;;;;;;1.65;0.20;;;;;;;;;;5017435;28;20028;-78
2024/01/02 13:48:35;;;;;;;0.30;0.30;;;;;;;;;;5017414;28;20006;-78
2024/01/02 13:51:03;;;;;;;0.20;0.20;;;;;;;;;;5020765;28;20030;-79
2024/01/02 13:53:29;;;;;;;0.35;0.25;;;;;;;;;;5025582;28;20129;-79
2024/01/02 13:55:56;;;;;;;0.40;0.40;;;;;;;;;;5020945;28;20042;-79
2024/01/02 13:58:22;;;;;;;0.30;0.30;;;;;;;;;;5012954;28;20074;-79
2024/01/02 14:00:49;;;;;;;0.10;0.10;;;;;;;;;;5026445;28;20022;-79
2024/01/02 14:03:19;;;;;;;0.43;0.20;;;;;;;;;;5024561;28;20014;-79
2024/01/02 14:05:58;;;;;;;1.52;0.50;;;;;;;;;;5006921;28;20030;-79
2024/01/02 14:08:28;;;;;;;0.38;0.15;;;;;;;;;;5024405;28;20018;-80
2024/01/02 14:10:55;;;;;;;0.85;0.22;;;;;;;;;;5011441;28;20053;-78
2024/01/02 14:13:29;;;;;;;0.65;0.40;;;;;;;;;;5016404;28;20021;-79
2024/01/02 14:15:59;;;;;;;0.30;0.20;;;;;;;;;;5016371;28;20053;-79
2024/01/02 14:18:26;;;;;;;0.75;0.43;;;;;;;;;;5011760;28;20026;-79
2024/01/02 14:21:16;;;;;;;0.38;0.38;;;;;;;;;;5017970;28;20080;-80
2024/01/02 14:23:52;;;;;;;0.38;0.38;;;;;;;;;;5019995;28;20017;-78
2024/01/02 14:26:36;;;;;;;0.80;0.60;;;;;;;;;;5005130;28;20022;-78
2024/01/02 14:29:05;;;;;;;1.20;0.60;;;;;;;;;;5026033;28;20097;-79
2024/01/02 14:31:31;;;;;;;1.10;0.98;;;;;;;;;;5005290;28;20022;-79
2024/01/02 14:33:57;;;;;;;2.00;1.00;;;;;;;;;;5017313;28;20029;-79
2024/01/02 14:36:40;;;;;;;2.15;1.42;;;;;;;;;;5009074;28;20022;-81
2024/01/02 14:39:20;;;;;;;2.13;1.55;;;;;;;;;;5006482;28;20502;-79
2024/01/02 14:42:04;;;;;;;0.73;0.73;;;;;;;;;;5013080;28;20025;-78
2024/01/02 14:44:36;;;;;;;1.95;0.85;;;;;;;;;;5006125;28;20054;-79
2024/01/02 14:47:09;;;;;;;1.17;1.00;;;;;;;;;;4997539;28;20122;-79
2024/01/02 14:49:36;;;;;;;0.77;0.77;;;;;;;;;;5005433;28;20030;-78